Time;durP1;ratioP1;P1;durP2;ratioP2;P2;SDS_P1;SDS_P2;PMS_P1;PMS_P2;Temp;Humidity;BMP_temperature;BMP_pressure;BME280_temperature;BME280_humidity;BME280_pressure;Samples;Min_cycle;Max_cycle;Signal;HPM_P1;HPM_P2
2021/07/31 00:01:14;;;;;;;28.73;21.30;;;22.50;79.30;;;;;;4993885;28;20054;-77
2021/07/31 00:03:40;;;;;;;32.65;21.27;;;22.50;79.40;;;;;;4994027;28;20495;-77
2021/07/31 00:06:06;;;;;;;26.02;21.33;;;22.50;79.60;;;;;;4993398;28;20422;-77
2021/07/31 00:08:33;;;;;;;27.98;20.52;;;22.40;79.60;;;;;;4993197;28;20027;-76
2021/07/31 00:10:59;;;;;;;28.17;20.58;;;22.40;79.70;;;;;;4993422;28;20468;-77
2021/07/31 00:13:27;;;;;;;24.80;20.77;;;22.50;79.80;;;;;;4993518;28;20037;-76
2021/07/31 00:15:53;;;;;;;24.38;19.92;;;22.40;79.80;;;;;;4993718;28;20033;-76
2021/07/31 00:18:19;;;;;;;26.17;20.52;;;22.40;79.80;;;;;;4993640;28;20038;-76
2021/07/31 00:20:45;;;;;;;26.33;20.40;;;22.40;79.80;;;;;;4993052;28;20033;-76
2021/07/31 00:23:11;;;;;;;24.23;18.60;;;22.40;79.70;;;;;;4993404;28;20109;-76
2021/07/31 00:25:37;;;;;;;22.10;18.77;;;22.30;79.80;;;;;;4993219;28;20380;-76
2021/07/31 00:28:03;;;;;;;26.17;19.38;;;22.30;79.90;;;;;;4993052;28;20034;-70
2021/07/31 00:30:29;;;;;;;24.58;18.98;;;22.30;79.90;;;;;;4992786;28;20026;-70
2021/07/31 00:32:56;;;;;;;22.08;18.80;;;22.30;79.90;;;;;;4992453;28;20481;-70
2021/07/31 00:35:22;;;;;;;25.13;19.65;;;22.20;79.90;;;;;;4992711;28;20522;-70
2021/07/31 00:37:48;;;;;;;23.52;18.00;;;22.20;79.90;;;;;;4992456;28;20022;-70
2021/07/31 00:40:14;;;;;;;23.92;19.92;;;22.20;79.90;;;;;;4992563;28;20029;-70
2021/07/31 00:42:43;;;;;;;22.00;18.02;;;22.20;80.00;;;;;;4992315;28;20435;-70
2021/07/31 00:45:11;;;;;;;31.63;21.25;;;22.10;80.00;;;;;;4992529;28;20027;-70
2021/07/31 00:47:38;;;;;;;25.67;20.02;;;22.10;80.10;;;;;;4992359;28;20084;-70
2021/07/31 00:50:05;;;;;;;29.75;21.42;;;22.10;80.30;;;;;;4992404;28;20026;-70
2021/07/31 00:52:31;;;;;;;26.67;19.63;;;22.10;80.40;;;;;;4992231;28;20031;-71
2021/07/31 00:54:59;;;;;;;29.02;19.80;;;22.00;80.50;;;;;;4992334;28;20022;-70
2021/07/31 00:57:26;;;;;;;30.02;20.25;;;22.00;80.60;;;;;;4992288;28;20365;-70
2021/07/31 00:59:52;;;;;;;25.88;19.70;;;22.00;80.70;;;;;;4992321;28;20029;-74
2021/07/31 01:02:18;;;;;;;24.15;20.90;;;22.00;80.80;;;;;;4992450;28;20044;-75
2021/07/31 01:04:44;;;;;;;26.98;19.65;;;22.00;80.90;;;;;;4992446;28;20031;-75
2021/07/31 01:07:09;;;;;;;25.55;19.88;;;21.90;80.90;;;;;;4992368;28;20038;-75
2021/07/31 01:09:35;;;;;;;26.05;21.17;;;21.90;81.00;;;;;;4992517;28;20054;-75
2021/07/31 01:12:02;;;;;;;26.75;19.90;;;21.90;81.10;;;;;;4974989;28;20027;-71
2021/07/31 01:14:28;;;;;;;30.30;24.30;;;21.90;81.10;;;;;;4992386;28;20026;-71
2021/07/31 01:16:55;;;;;;;35.17;24.52;;;21.90;81.20;;;;;;4992393;28;20029;-69
2021/07/31 01:19:21;;;;;;;29.20;21.38;;;21.80;81.20;;;;;;4992418;28;20022;-69
2021/07/31 01:21:47;;;;;;;24.67;20.60;;;21.80;81.20;;;;;;4992269;28;20428;-69
2021/07/31 01:24:14;;;;;;;28.40;20.48;;;21.80;81.40;;;;;;4992246;28;20022;-69
2021/07/31 01:26:45;;;;;;;30.35;20.35;;;21.80;81.40;;;;;;4991949;28;20061;-70
2021/07/31 01:29:13;;;;;;;27.45;19.77;;;21.80;81.40;;;;;;4992192;28;20053;-70
2021/07/31 01:31:40;;;;;;;29.83;20.70;;;21.80;81.50;;;;;;4992503;28;20093;-70
2021/07/31 01:34:06;;;;;;;23.48;19.52;;;21.80;81.50;;;;;;4995965;28;20024;-70
2021/07/31 01:36:32;;;;;;;25.85;20.02;;;21.80;81.50;;;;;;4995951;28;20407;-70
2021/07/31 01:38:59;;;;;;;24.13;20.92;;;21.70;81.50;;;;;;4996075;28;20034;-70
2021/07/31 01:41:25;;;;;;;27.75;19.75;;;21.70;81.60;;;;;;4995893;28;20030;-70
2021/07/31 01:43:52;;;;;;;25.80;20.25;;;21.70;81.70;;;;;;4995955;28;20049;-69
2021/07/31 01:46:19;;;;;;;26.77;19.92;;;21.70;81.70;;;;;;4996020;28;20061;-70
2021/07/31 01:48:45;;;;;;;30.38;18.83;;;21.70;81.90;;;;;;4995982;28;20514;-70
2021/07/31 01:51:11;;;;;;;26.80;20.02;;;21.70;81.80;;;;;;4995730;28;20030;-70
2021/07/31 01:53:37;;;;;;;27.25;20.25;;;21.60;81.70;;;;;;4995723;28;20085;-70
2021/07/31 01:56:03;;;;;;;24.58;18.80;;;21.60;81.90;;;;;;4995823;28;20038;-70
2021/07/31 01:58:28;;;;;;;26.33;19.98;;;21.60;81.90;;;;;;4995783;28;20483;-70
2021/07/31 02:00:55;;;;;;;24.80;19.52;;;21.60;81.90;;;;;;4995817;28;20115;-69
2021/07/31 02:03:22;;;;;;;27.88;20.42;;;21.50;82.00;;;;;;4995516;28;20018;-70
2021/07/31 02:05:47;;;;;;;34.10;20.55;;;21.50;82.10;;;;;;4995516;28;20464;-70
2021/07/31 02:08:13;;;;;;;28.92;19.58;;;21.50;82.30;;;;;;4995464;28;20068;-70
2021/07/31 02:10:39;;;;;;;34.95;20.15;;;21.50;82.20;;;;;;4995506;28;20076;-70
2021/07/31 02:13:04;;;;;;;25.35;20.05;;;21.50;82.30;;;;;;4995348;28;20037;-70
2021/07/31 02:15:30;;;;;;;29.52;19.52;;;21.50;82.30;;;;;;4995100;28;20023;-70
2021/07/31 02:17:56;;;;;;;23.85;19.42;;;21.50;82.30;;;;;;4994940;28;20033;-70
2021/07/31 02:20:23;;;;;;;25.70;20.10;;;21.50;82.30;;;;;;4995130;28;20436;-70
2021/07/31 02:22:50;;;;;;;22.85;18.65;;;21.50;82.40;;;;;;4995115;28;20040;-70
2021/07/31 02:25:15;;;;;;;24.55;18.90;;;21.50;82.50;;;;;;4995154;28;20433;-70
2021/07/31 02:27:41;;;;;;;32.05;19.73;;;21.50;82.40;;;;;;4995165;28;20039;-70
2021/07/31 02:30:08;;;;;;;25.25;19.02;;;21.50;82.40;;;;;;4994921;28;20030;-70
2021/07/31 02:32:33;;;;;;;25.50;18.67;;;21.50;82.40;;;;;;4994907;28;20078;-70
2021/07/31 02:34:59;;;;;;;27.45;18.60;;;21.60;83.00;;;;;;4994921;28;20428;-70
2021/07/31 02:37:25;;;;;;;24.88;18.52;;;21.60;82.30;;;;;;4995062;28;20030;-73
2021/07/31 02:39:50;;;;;;;33.40;19.30;;;21.70;82.00;;;;;;4994841;28;20025;-74
2021/07/31 02:42:16;;;;;;;23.45;18.98;;;21.70;81.90;;;;;;4994642;28;20030;-74
2021/07/31 02:44:42;;;;;;;26.55;19.25;;;21.90;82.10;;;;;;4994756;28;20105;-74
2021/07/31 02:47:08;;;;;;;26.55;19.90;;;22.20;81.90;;;;;;4994758;28;20066;-74
2021/07/31 02:49:33;;;;;;;28.33;19.05;;;22.60;81.30;;;;;;4994714;28;20380;-75
2021/07/31 02:51:59;;;;;;;24.13;18.48;;;23.00;80.20;;;;;;4994485;28;20084;-74
2021/07/31 02:54:25;;;;;;;26.65;18.33;;;23.50;79.10;;;;;;4994789;28;20026;-75
2021/07/31 02:56:50;;;;;;;23.25;17.60;;;24.00;77.50;;;;;;4994951;28;20522;-74
2021/07/31 02:59:16;;;;;;;22.33;17.20;;;24.50;76.10;;;;;;4994471;28;20038;-74
2021/07/31 03:01:42;;;;;;;21.48;16.42;;;25.00;74.50;;;;;;4994543;28;20034;-74
2021/07/31 03:04:07;;;;;;;22.33;17.30;;;25.60;73.10;;;;;;4994480;28;20468;-75
2021/07/31 03:06:33;;;;;;;25.90;16.85;;;26.10;71.70;;;;;;4994286;28;20393;-70
2021/07/31 03:08:59;;;;;;;21.88;16.65;;;26.70;70.10;;;;;;4994251;28;20026;-70
2021/07/31 03:11:24;;;;;;;21.65;16.23;;;27.20;68.60;;;;;;4994216;28;20023;-70
2021/07/31 03:13:50;;;;;;;19.38;15.65;;;27.80;67.10;;;;;;4994251;28;20026;-70
2021/07/31 03:16:16;;;;;;;20.48;15.65;;;28.40;65.70;;;;;;4994341;28;20023;-70
2021/07/31 03:18:42;;;;;;;22.33;15.63;;;28.90;64.40;;;;;;4994162;28;20027;-70
2021/07/31 03:21:10;;;;;;;23.98;16.63;;;29.50;63.20;;;;;;4994158;28;20395;-70
2021/07/31 03:23:36;;;;;;;20.30;14.55;;;29.90;61.70;;;;;;4994060;28;20106;-75
2021/07/31 03:26:03;;;;;;;21.23;14.60;;;30.40;60.60;;;;;;4994061;28;20105;-76
2021/07/31 03:28:29;;;;;;;17.55;15.60;;;30.90;59.50;;;;;;4993972;28;20081;-75
2021/07/31 03:30:56;;;;;;;19.95;15.27;;;31.40;58.30;;;;;;4993589;28;20033;-76
2021/07/31 03:33:21;;;;;;;18.98;14.48;;;31.90;57.30;;;;;;4993667;28;20034;-76
2021/07/31 03:35:48;;;;;;;18.25;13.82;;;32.40;56.20;;;;;;4993835;28;20030;-75
2021/07/31 03:38:13;;;;;;;20.90;15.35;;;32.90;55.30;;;;;;4993702;28;20050;-76
2021/07/31 03:40:39;;;;;;;22.15;14.95;;;33.40;54.30;;;;;;4993851;28;20050;-77
2021/07/31 03:43:05;;;;;;;24.23;14.45;;;33.90;53.30;;;;;;4993697;28;20022;-77
2021/07/31 03:45:31;;;;;;;23.27;13.80;;;34.30;52.50;;;;;;4994026;28;20030;-76
2021/07/31 03:47:56;;;;;;;17.35;13.38;;;34.80;51.50;;;;;;4993800;28;20813;-76
2021/07/31 03:50:22;;;;;;;18.35;13.10;;;35.20;50.70;;;;;;4993643;28;20030;-77
2021/07/31 03:52:48;;;;;;;18.00;13.13;;;35.70;50.00;;;;;;4993762;28;20038;-76
2021/07/31 03:55:14;;;;;;;18.52;13.57;;;36.10;49.20;;;;;;4992497;28;20058;-71
2021/07/31 03:57:40;;;;;;;17.50;14.02;;;36.50;48.60;;;;;;4993303;28;20033;-71
2021/07/31 04:00:06;;;;;;;15.20;13.57;;;36.90;47.90;;;;;;4993342;28;20037;-70
2021/07/31 04:02:32;;;;;;;20.00;13.38;;;37.20;47.30;;;;;;4975540;28;20121;-73
2021/07/31 04:04:58;;;;;;;16.98;13.73;;;37.50;46.70;;;;;;4993066;28;20054;-71
2021/07/31 04:07:25;;;;;;;18.90;14.25;;;37.90;46.30;;;;;;4993131;28;20058;-71
2021/07/31 04:09:51;;;;;;;16.50;13.75;;;38.20;45.80;;;;;;4993155;28;20026;-71
2021/07/31 04:12:16;;;;;;;19.10;14.40;;;38.50;45.40;;;;;;4992814;28;20132;-71
2021/07/31 04:14:42;;;;;;;16.85;14.02;;;38.80;45.00;;;;;;4975562;28;20038;-70
2021/07/31 04:17:08;;;;;;;15.10;13.25;;;39.10;44.60;;;;;;4992791;28;20030;-71
2021/07/31 04:19:34;;;;;;;16.70;14.75;;;39.40;44.20;;;;;;4992676;28;20396;-70
2021/07/31 04:21:59;;;;;;;17.70;14.27;;;39.70;43.90;;;;;;4992856;28;20057;-71
2021/07/31 04:24:26;;;;;;;17.40;13.48;;;40.00;43.60;;;;;;4992785;28;20461;-70
2021/07/31 04:26:52;;;;;;;15.48;13.30;;;40.20;43.30;;;;;;4992719;28;20093;-70
2021/07/31 04:29:18;;;;;;;18.48;14.88;;;40.40;43.00;;;;;;4992690;28;20033;-72
2021/07/31 04:31:45;;;;;;;16.58;14.70;;;40.60;42.80;;;;;;4992577;28;20077;-70
2021/07/31 04:34:10;;;;;;;17.88;13.38;;;40.80;42.50;;;;;;4992640;28;20019;-70
2021/07/31 04:36:36;;;;;;;16.33;13.77;;;40.90;42.10;;;;;;4992757;28;20034;-70
2021/07/31 04:39:03;;;;;;;17.83;13.55;;;41.20;41.90;;;;;;4992966;28;20019;-70
2021/07/31 04:41:28;;;;;;;20.00;14.50;;;41.30;41.70;;;;;;4992716;28;20031;-71
2021/07/31 04:43:54;;;;;;;21.38;12.77;;;41.60;41.50;;;;;;4992511;28;20149;-70
2021/07/31 04:46:20;;;;;;;15.77;12.13;;;41.90;41.20;;;;;;4992490;28;20037;-69
2021/07/31 04:48:46;;;;;;;17.10;12.98;;;42.20;40.60;;;;;;4992307;28;20031;-70
2021/07/31 04:51:11;;;;;;;14.82;11.93;;;42.50;40.30;;;;;;4991337;28;20044;-70
2021/07/31 04:53:37;;;;;;;18.00;12.32;;;42.70;39.90;;;;;;4991045;28;20010;-70
2021/07/31 04:56:03;;;;;;;17.60;12.32;;;43.10;39.70;;;;;;4990622;28;20379;-71
2021/07/31 04:58:29;;;;;;;13.95;11.88;;;43.40;39.40;;;;;;4988419;28;20057;-71
2021/07/31 05:00:55;;;;;;;17.60;12.75;;;43.70;39.10;;;;;;4990896;28;20432;-71
2021/07/31 05:03:21;;;;;;;15.05;12.55;;;44.00;38.70;;;;;;4990929;28;20777;-70
2021/07/31 05:05:47;;;;;;;16.20;12.30;;;44.40;38.60;;;;;;4991498;28;20049;-71
2021/07/31 05:08:14;;;;;;;16.75;13.02;;;44.60;38.30;;;;;;4994953;28;20476;-70
2021/07/31 05:10:48;;;;;;;14.98;12.38;;;44.90;38.20;;;;;;4994778;28;20022;-70
2021/07/31 05:13:14;;;;;;;14.30;12.43;;;45.10;37.90;;;;;;4992866;28;20025;-70
2021/07/31 05:15:42;;;;;;;16.67;11.70;;;45.30;37.80;;;;;;4994863;28;20025;-70
2021/07/31 05:18:09;;;;;;;15.15;11.82;;;45.50;37.40;;;;;;4994672;28;20031;-70
2021/07/31 05:20:47;;;;;;;15.85;11.82;;;45.70;37.10;;;;;;4994478;28;20026;-70
2021/07/31 05:23:13;;;;;;;15.00;12.65;;;45.80;36.90;;;;;;4992390;28;20026;-71
2021/07/31 05:25:45;;;;;;;15.38;11.18;;;46.20;36.90;;;;;;4993784;28;20019;-71
2021/07/31 05:28:14;;;;;;;13.07;11.73;;;46.50;36.30;;;;;;4992215;28;20117;-69
2021/07/31 05:30:41;;;;;;;16.17;11.88;;;46.80;36.30;;;;;;4993852;28;20030;-69
2021/07/31 05:33:08;;;;;;;13.40;11.90;;;47.00;36.00;;;;;;4994112;28;20033;-70
2021/07/31 05:35:33;;;;;;;13.98;12.35;;;47.20;35.90;;;;;;4994201;28;20421;-70
2021/07/31 05:38:00;;;;;;;14.75;11.38;;;47.40;35.70;;;;;;4994292;28;20065;-69
2021/07/31 05:40:26;;;;;;;13.43;11.43;;;47.80;35.60;;;;;;4994062;28;20021;-78
2021/07/31 05:42:51;;;;;;;14.10;11.45;;;48.00;35.30;;;;;;4994070;28;20022;-77
2021/07/31 05:45:18;;;;;;;12.48;11.25;;;48.10;34.90;;;;;;4994084;28;20030;-77
2021/07/31 05:47:44;;;;;;;18.48;12.32;;;48.30;34.70;;;;;;4993828;28;20375;-78
2021/07/31 05:50:11;;;;;;;17.63;11.52;;;48.20;34.50;;;;;;4993842;28;20026;-77
2021/07/31 05:52:40;;;;;;;13.52;12.23;;;48.30;34.50;;;;;;4993618;28;20073;-78
2021/07/31 05:55:07;;;;;;;14.30;12.27;;;48.30;34.30;;;;;;4992945;28;20085;-77
2021/07/31 05:57:33;;;;;;;19.38;11.20;;;48.40;34.50;;;;;;4993393;28;20113;-77
2021/07/31 05:59:59;;;;;;;15.88;11.55;;;48.40;34.40;;;;;;4993494;28;20022;-78
2021/07/31 06:02:25;;;;;;;13.25;11.20;;;48.50;34.40;;;;;;4992962;28;20050;-81
2021/07/31 06:04:51;;;;;;;14.73;11.15;;;48.60;34.20;;;;;;4995702;28;20027;-81
2021/07/31 06:07:17;;;;;;;12.55;11.35;;;48.80;34.10;;;;;;4977077;28;20496;-82
2021/07/31 06:09:50;;;;;;;12.52;11.32;;;48.80;34.00;;;;;;4993907;28;20031;-83
2021/07/31 06:12:16;;;;;;;13.70;12.13;;;48.80;34.00;;;;;;4993744;28;20029;-81
2021/07/31 06:14:42;;;;;;;13.35;10.65;;;48.80;34.10;;;;;;4993416;28;20085;-77
2021/07/31 06:17:08;;;;;;;16.60;11.00;;;48.80;34.00;;;;;;4992619;28;20027;-77
2021/07/31 06:19:34;;;;;;;13.68;11.18;;;48.80;34.10;;;;;;4993300;28;20437;-72
2021/07/31 06:22:01;;;;;;;14.32;11.77;;;48.80;34.00;;;;;;4994022;28;20098;-71
2021/07/31 06:24:27;;;;;;;12.95;10.10;;;48.90;33.90;;;;;;4993679;28;20022;-71
2021/07/31 06:26:54;;;;;;;13.70;9.90;;;48.90;33.60;;;;;;4993303;28;20022;-71
2021/07/31 06:29:20;;;;;;;11.38;10.18;;;48.90;33.60;;;;;;4994401;28;20022;-71
2021/07/31 06:31:46;;;;;;;11.70;10.00;;;48.80;33.60;;;;;;4976887;28;20042;-70
2021/07/31 06:34:12;;;;;;;11.45;10.15;;;48.80;33.70;;;;;;4994685;28;20567;-71
2021/07/31 06:36:38;;;;;;;11.15;10.15;;;48.80;33.80;;;;;;4993953;28;20030;-72
2021/07/31 06:39:04;;;;;;;11.63;9.75;;;48.80;33.70;;;;;;4993922;28;20018;-71
2021/07/31 06:41:30;;;;;;;14.38;10.32;;;48.80;33.60;;;;;;4995937;28;20492;-72
2021/07/31 06:43:57;;;;;;;10.73;9.57;;;48.80;33.60;;;;;;5009306;28;20116;-71
2021/07/31 06:46:24;;;;;;;11.68;10.50;;;48.70;33.60;;;;;;5013234;28;20034;-72
2021/07/31 06:48:53;;;;;;;20.00;10.90;;;48.70;33.80;;;;;;5012793;28;20026;-71
2021/07/31 06:51:21;;;;;;;16.40;10.43;;;48.70;34.00;;;;;;5013254;28;20022;-71
2021/07/31 06:53:47;;;;;;;14.90;10.07;;;48.60;33.90;;;;;;5013370;28;20025;-71
2021/07/31 06:56:13;;;;;;;12.45;10.98;;;48.60;34.10;;;;;;5013685;28;20022;-72
2021/07/31 06:58:38;;;;;;;13.55;9.52;;;48.50;33.90;;;;;;5013535;28;20037;-72
2021/07/31 07:01:11;;;;;;;11.02;9.88;;;48.60;34.00;;;;;;5013388;28;20022;-73
2021/07/31 07:03:37;;;;;;;10.32;8.82;;;48.70;33.80;;;;;;5013246;28;20052;-72
2021/07/31 07:06:07;;;;;;;11.20;9.80;;;48.60;33.50;;;;;;5013296;28;20026;-71
2021/07/31 07:08:34;;;;;;;10.88;9.85;;;48.50;33.40;;;;;;5013210;28;20729;-71
2021/07/31 07:11:00;;;;;;;14.45;10.18;;;48.40;33.50;;;;;;5013259;28;20033;-72
2021/07/31 07:13:26;;;;;;;11.10;10.05;;;48.30;33.60;;;;;;5013103;28;20026;-72
2021/07/31 07:15:52;;;;;;;18.48;10.60;;;48.20;33.90;;;;;;5012603;28;20026;-70
2021/07/31 07:18:18;;;;;;;10.57;8.70;;;48.10;34.00;;;;;;5012833;28;20053;-72
2021/07/31 07:20:45;;;;;;;12.68;8.23;;;48.10;33.80;;;;;;5013269;28;20061;-71
2021/07/31 07:23:10;;;;;;;13.63;9.27;;;48.10;33.80;;;;;;5012702;28;20050;-71
2021/07/31 07:25:37;;;;;;;14.13;8.23;;;48.10;33.60;;;;;;5013241;28;20400;-73
2021/07/31 07:28:03;;;;;;;10.88;8.27;;;48.10;33.60;;;;;;5012842;28;20026;-72
2021/07/31 07:30:28;;;;;;;12.18;8.00;;;48.00;33.70;;;;;;5013479;28;20032;-71
2021/07/31 07:32:54;;;;;;;10.23;8.15;;;47.90;33.50;;;;;;5013271;28;20120;-72
2021/07/31 07:35:21;;;;;;;11.43;7.72;;;47.70;33.50;;;;;;5012843;28;20076;-72
2021/07/31 07:37:47;;;;;;;9.27;7.60;;;47.50;33.60;;;;;;5012849;28;20029;-73
2021/07/31 07:40:13;;;;;;;13.25;6.57;;;47.40;33.50;;;;;;5012900;28;20413;-72
2021/07/31 07:42:39;;;;;;;9.55;6.75;;;47.20;33.40;;;;;;5013066;28;20045;-71
2021/07/31 07:45:09;;;;;;;9.02;6.20;;;47.00;33.30;;;;;;5012776;28;20026;-71
2021/07/31 07:47:35;;;;;;;12.32;7.25;;;47.00;33.40;;;;;;4997056;28;20026;-71
2021/07/31 07:50:05;;;;;;;7.97;7.25;;;46.90;33.30;;;;;;5012807;28;20487;-71
2021/07/31 07:52:31;;;;;;;8.73;6.53;;;46.80;33.60;;;;;;5012336;28;20030;-71
2021/07/31 07:54:56;;;;;;;6.88;5.93;;;46.60;33.60;;;;;;5012343;28;20041;-70
2021/07/31 07:57:22;;;;;;;14.27;7.38;;;46.40;33.40;;;;;;5012519;28;20018;-71
2021/07/31 07:59:48;;;;;;;8.10;6.05;;;46.20;33.60;;;;;;5013583;28;20491;-72
2021/07/31 08:02:17;;;;;;;17.25;7.93;;;46.10;33.50;;;;;;4997980;28;20476;-77
2021/07/31 08:04:46;;;;;;;13.63;7.68;;;45.90;33.60;;;;;;5029262;28;20088;-77
2021/07/31 08:07:12;;;;;;;14.15;5.93;;;45.70;33.60;;;;;;5013213;28;20560;-77
2021/07/31 08:09:39;;;;;;;11.35;6.95;;;45.40;33.50;;;;;;5030127;28;20025;-77
2021/07/31 08:12:06;;;;;;;6.63;5.07;;;45.20;33.80;;;;;;5013053;28;20022;-75
2021/07/31 08:14:32;;;;;;;8.13;5.38;;;45.00;33.80;;;;;;5012959;28;20018;-75
2021/07/31 08:16:57;;;;;;;6.70;4.88;;;44.70;33.90;;;;;;5012503;28;20018;-75
2021/07/31 08:19:24;;;;;;;6.75;5.22;;;44.40;33.70;;;;;;5012828;28;20415;-73
2021/07/31 08:21:49;;;;;;;10.95;6.07;;;43.90;33.90;;;;;;5012119;28;20471;-71
2021/07/31 08:24:18;;;;;;;7.43;5.60;;;43.60;34.40;;;;;;5012067;28;20029;-71
2021/07/31 08:26:45;;;;;;;17.48;4.72;;;43.40;34.60;;;;;;5011851;28;20026;-70
2021/07/31 08:29:11;;;;;;;7.80;5.65;;;42.90;34.60;;;;;;5012142;28;20026;-71
2021/07/31 08:31:40;;;;;;;8.98;4.90;;;42.50;34.80;;;;;;5011377;28;20404;-71
2021/07/31 08:34:06;;;;;;;6.78;4.90;;;42.20;35.30;;;;;;5012048;28;20101;-73
2021/07/31 08:36:31;;;;;;;10.07;5.43;;;42.00;35.40;;;;;;5011597;28;20165;-71
2021/07/31 08:38:57;;;;;;;5.90;4.60;;;41.80;35.40;;;;;;5011672;28;20030;-72
2021/07/31 08:41:23;;;;;;;5.57;5.00;;;41.60;35.40;;;;;;5011270;28;20030;-71
2021/07/31 08:43:49;;;;;;;10.05;5.25;;;41.30;35.50;;;;;;5011310;28;20108;-72
2021/07/31 08:46:15;;;;;;;6.05;5.18;;;41.10;35.60;;;;;;5011778;28;20030;-72
2021/07/31 08:48:42;;;;;;;7.35;4.72;;;41.00;35.70;;;;;;5007785;28;20037;-73
2021/07/31 08:51:09;;;;;;;8.52;5.28;;;40.80;36.00;;;;;;5011695;28;20132;-72
2021/07/31 08:53:36;;;;;;;7.13;4.90;;;40.80;36.00;;;;;;5011699;28;20022;-72
2021/07/31 08:56:02;;;;;;;7.97;5.05;;;40.70;36.10;;;;;;5011638;28;20018;-72
2021/07/31 08:58:28;;;;;;;9.20;5.20;;;40.50;36.00;;;;;;4993963;28;20022;-73
2021/07/31 09:00:57;;;;;;;6.82;4.75;;;40.50;36.10;;;;;;5010751;28;20068;-73
2021/07/31 09:03:23;;;;;;;9.90;6.43;;;40.30;35.90;;;;;;5011369;28;20022;-73
2021/07/31 09:05:49;;;;;;;8.63;5.60;;;40.20;35.90;;;;;;5011498;28;20108;-72
2021/07/31 09:08:15;;;;;;;7.70;5.28;;;40.20;36.20;;;;;;5010117;28;20053;-72
2021/07/31 09:10:43;;;;;;;9.27;5.32;;;40.10;36.40;;;;;;5010790;28;20396;-72
2021/07/31 09:13:14;;;;;;;12.55;6.05;;;40.10;36.60;;;;;;4996660;28;20113;-72
2021/07/31 09:15:42;;;;;;;9.45;4.88;;;40.10;36.40;;;;;;4994998;28;20036;-72
2021/07/31 09:18:29;;;;;;;6.53;5.10;;;40.10;36.50;;;;;;5009923;28;20064;-72
2021/07/31 09:21:07;;;;;;;6.93;4.55;;;40.10;36.20;;;;;;4992991;28;20444;-71
2021/07/31 09:23:44;;;;;;;6.72;5.22;;;40.00;36.20;;;;;;4991822;28;20023;-80
2021/07/31 09:26:15;;;;;;;5.60;4.18;;;40.00;36.30;;;;;;4975347;28;20041;-74
2021/07/31 09:28:42;;;;;;;8.18;5.70;;;39.90;36.20;;;;;;4992422;28;20058;-72
2021/07/31 09:31:16;;;;;;;7.20;4.80;;;39.90;36.50;;;;;;4991765;28;20038;-75
2021/07/31 09:33:48;;;;;;;9.90;4.97;;;39.70;36.40;;;;;;4974417;28;20388;-75
2021/07/31 09:36:14;;;;;;;8.63;5.10;;;39.50;36.30;;;;;;4992354;28;20102;-74
2021/07/31 09:38:43;;;;;;;8.32;5.20;;;39.40;37.20;;;;;;4993125;28;20027;-76
2021/07/31 09:41:24;;;;;;;7.43;6.18;;;39.20;37.30;;;;;;4992154;28;20037;-74
2021/07/31 09:44:04;;;;;;;9.40;5.60;;;39.00;37.20;;;;;;4991743;28;20496;-75
2021/07/31 09:46:51;;;;;;;6.35;5.18;;;38.90;37.60;;;;;;4992335;28;20147;-76
2021/07/31 09:49:19;;;;;;;9.38;5.10;;;38.80;37.90;;;;;;4992011;28;20489;-75
2021/07/31 09:51:50;;;;;;;10.05;5.50;;;38.70;38.00;;;;;;4992306;28;20060;-75
2021/07/31 09:54:21;;;;;;;7.15;5.13;;;38.60;38.20;;;;;;4994860;28;20023;-77
2021/07/31 09:56:47;;;;;;;12.35;5.50;;;38.60;38.60;;;;;;4995387;28;20030;-75
2021/07/31 09:59:14;;;;;;;9.82;6.45;;;38.50;38.50;;;;;;4995145;28;20149;-74
2021/07/31 10:01:56;;;;;;;10.90;5.30;;;38.50;38.80;;;;;;4995236;28;20034;-74
2021/07/31 10:04:22;;;;;;;6.88;4.68;;;38.50;38.70;;;;;;4995883;28;20084;-75
2021/07/31 10:06:49;;;;;;;12.77;5.63;;;38.50;38.70;;;;;;4995941;28;20100;-74
2021/07/31 10:09:15;;;;;;;10.23;5.10;;;38.50;38.60;;;;;;4995671;28;20034;-75
2021/07/31 10:11:41;;;;;;;8.90;5.57;;;38.30;38.40;;;;;;4978070;28;20029;-73
2021/07/31 10:14:09;;;;;;;9.77;5.22;;;38.10;38.80;;;;;;4995409;28;20022;-75
2021/07/31 10:16:39;;;;;;;9.90;5.32;;;38.10;39.00;;;;;;4995891;28;20496;-74
2021/07/31 10:19:10;;;;;;;9.63;5.70;;;38.20;38.80;;;;;;4995356;28;20480;-74
2021/07/31 10:21:58;;;;;;;11.55;6.05;;;38.10;38.70;;;;;;4994579;28;20031;-76
2021/07/31 10:24:25;;;;;;;9.25;5.10;;;38.00;38.80;;;;;;4995027;28;20505;-75
2021/07/31 10:27:16;;;;;;;7.20;5.32;;;37.90;39.00;;;;;;4994940;28;20469;-76
2021/07/31 10:29:45;;;;;;;8.38;5.13;;;37.60;39.60;;;;;;4995139;28;20030;-76
2021/07/31 10:32:35;;;;;;;6.50;5.45;;;37.50;39.60;;;;;;4977069;28;20053;-75
2021/07/31 10:35:30;;;;;;;9.50;5.60;;;37.50;39.80;;;;;;4986282;28;20026;-79
2021/07/31 10:38:06;;;;;;;10.23;5.45;;;37.30;40.00;;;;;;4997386;28;20161;-79
2021/07/31 10:40:42;;;;;;;15.82;5.95;;;37.20;40.40;;;;;;5000375;28;20072;-80
2021/07/31 10:43:09;;;;;;;7.85;5.60;;;37.10;40.70;;;;;;4981342;28;20416;-79
2021/07/31 10:45:35;;;;;;;6.18;5.05;;;37.10;41.00;;;;;;4997332;28;20031;-80
2021/07/31 10:48:02;;;;;;;9.63;5.60;;;37.20;41.10;;;;;;4979658;28;20037;-78
2021/07/31 10:50:27;;;;;;;8.65;5.68;;;37.10;41.20;;;;;;4997891;28;20033;-80
2021/07/31 10:53:08;;;;;;;7.10;4.85;;;37.00;41.00;;;;;;4998284;28;20378;-80
2021/07/31 10:55:37;;;;;;;8.73;5.97;;;37.00;40.80;;;;;;4998045;28;20489;-80
2021/07/31 10:58:07;;;;;;;5.90;4.97;;;36.90;40.90;;;;;;4995715;28;20029;-81
2021/07/31 11:01:01;;;;;;;9.95;5.57;;;36.90;40.60;;;;;;4983222;28;20029;-80
2021/07/31 11:03:31;;;;;;;6.72;5.20;;;36.80;40.60;;;;;;4999469;28;20034;-80
2021/07/31 11:06:01;;;;;;;8.20;5.22;;;36.70;40.70;;;;;;5001189;28;20033;-81
2021/07/31 11:08:28;;;;;;;5.90;5.30;;;36.60;41.10;;;;;;5001652;28;20018;-82
2021/07/31 11:10:55;;;;;;;11.40;5.72;;;36.50;41.50;;;;;;5002428;28;20018;-80
2021/07/31 11:13:20;;;;;;;7.32;5.30;;;36.50;41.90;;;;;;5001911;28;20037;-81
2021/07/31 11:15:55;;;;;;;6.25;5.53;;;36.50;41.90;;;;;;5003869;28;20022;-80
2021/07/31 11:18:21;;;;;;;11.57;7.25;;;36.50;42.00;;;;;;5000951;28;20584;-81
2021/07/31 11:20:48;;;;;;;8.48;5.35;;;36.50;41.80;;;;;;5000174;28;20022;-80
2021/07/31 11:23:14;;;;;;;8.15;5.35;;;36.50;41.60;;;;;;4984690;28;20114;-80
2021/07/31 11:25:42;;;;;;;9.95;5.95;;;36.50;41.40;;;;;;5001013;28;20101;-82
2021/07/31 11:28:09;;;;;;;7.38;5.63;;;36.60;41.70;;;;;;4999731;28;20030;-80
2021/07/31 11:30:47;;;;;;;8.15;5.32;;;36.60;41.20;;;;;;4999344;28;20358;-80
2021/07/31 11:33:19;;;;;;;6.32;5.30;;;36.60;41.50;;;;;;5001467;28;20066;-79
2021/07/31 11:35:45;;;;;;;8.48;4.93;;;36.60;41.40;;;;;;4998143;28;20380;-80
2021/07/31 11:38:32;;;;;;;7.05;5.35;;;36.60;41.00;;;;;;4995317;28;20105;-81
2021/07/31 11:41:11;;;;;;;10.75;5.95;;;36.40;41.10;;;;;;4995065;28;20034;-80
2021/07/31 11:43:48;;;;;;;11.20;8.70;;;36.30;41.30;;;;;;4996400;28;20096;-79
2021/07/31 11:46:29;;;;;;;7.80;5.32;;;36.30;41.50;;;;;;4980837;28;20049;-79
2021/07/31 11:49:05;;;;;;;6.03;5.40;;;36.30;41.40;;;;;;4997428;28;20033;-79
2021/07/31 11:51:30;;;;;;;7.43;5.47;;;36.20;41.60;;;;;;4996377;28;20030;-78
2021/07/31 11:54:03;;;;;;;7.10;5.65;;;36.10;41.70;;;;;;4962094;28;20165;-78
2021/07/31 11:56:30;;;;;;;7.80;5.05;;;36.00;41.40;;;;;;4996450;28;20117;-76
2021/07/31 11:58:56;;;;;;;11.25;5.75;;;35.90;41.20;;;;;;4996814;28;20018;-80
2021/07/31 12:01:22;;;;;;;5.88;5.28;;;35.80;41.90;;;;;;4999762;28;20034;-80
2021/07/31 12:03:50;;;;;;;6.80;5.95;;;35.80;41.90;;;;;;4996887;28;20050;-79
2021/07/31 12:06:30;;;;;;;12.18;6.18;;;35.80;41.70;;;;;;4998124;28;20023;-79
2021/07/31 12:08:58;;;;;;;7.03;5.22;;;35.80;41.90;;;;;;4998424;28;20030;-78
2021/07/31 12:11:41;;;;;;;8.95;5.93;;;35.80;41.70;;;;;;4977783;28;20715;-75
2021/07/31 12:14:31;;;;;;;7.00;5.40;;;35.80;41.90;;;;;;4992605;28;20018;-76
2021/07/31 12:17:23;;;;;;;7.33;6.00;;;35.70;41.60;;;;;;4991776;28;20027;-76
2021/07/31 12:19:57;;;;;;;7.95;5.45;;;35.60;41.50;;;;;;4992462;28;20628;-76
2021/07/31 12:22:27;;;;;;;10.45;5.28;;;35.60;41.90;;;;;;4992549;28;20034;-76
2021/07/31 12:25:11;;;;;;;7.78;5.65;;;35.60;41.80;;;;;;4992552;28;20116;-76
2021/07/31 12:27:59;;;;;;;10.00;5.45;;;35.50;41.90;;;;;;4992317;28;20461;-75
2021/07/31 12:30:28;;;;;;;7.10;5.30;;;35.50;41.70;;;;;;4992156;28;20377;-76
2021/07/31 12:33:06;;;;;;;6.35;5.25;;;35.50;41.70;;;;;;4992205;28;20460;-75
2021/07/31 12:36:07;;;;;;;8.73;5.35;;;35.50;41.60;;;;;;4992167;28;20071;-75
2021/07/31 12:38:33;;;;;;;8.20;5.72;;;35.40;41.80;;;;;;4988152;28;20041;-76